Flight Track Log - Related Links

Times and Time Zones

All times are in EDT time to prevent confusion due to time zone crossing. See the CPT7773 flight status page for this flight to view local times or setup timezone preferences in your user account.

Time Position Orientation Groundspeed Altitude Reporting Facility
EDT Latitude Longitude Course Direction KTS km/h feet Rate Location/Type
Fri 20:02:49 44.5372 -108.9708 133° Southeast 130 241 6.400  Level Salt Lake Center
Fri 20:03:51 44.5250 -108.9214 109° East 136 253 7.500 1.016 Climbing Salt Lake Center
Fri 20:04:53 44.5150 -108.8653 104° East 141 261 8.500 976 Climbing Salt Lake Center
Fri 20:05:54 44.5042 -108.8064 104° East 149 275 9.500 1.024 Climbing Salt Lake Center
Fri 20:06:56 44.4861 -108.7508 114° Southeast 154 285 10.600 677 Climbing Salt Lake Center
Fri 20:07:58 44.4458 -108.6931 134° Southeast 164 304 10.900 195 Climbing Salt Lake Center
Fri 20:08:00 44.3205 -108.6941 133° Southeast  Level Estimated
Fri 20:08:59 44.4097 -108.6375 132° Southeast 178 330 11.000  Level Salt Lake Center
Fri 20:10:01 44.3739 -108.5828 132° Southeast 186 344 11.000  Level Salt Lake Center
Fri 20:11:03 44.3383 -108.5278 132° Southeast 189 349 11.000  Level Salt Lake Center
Fri 20:12:05 44.3028 -108.4722 132° Southeast 191 354 11.000  Level Salt Lake Center
Fri 20:13:07 44.2658 -108.4164 133° Southeast 193 357 11.000  Level Salt Lake Center
Fri 20:14:08 44.2222 -108.3494 132° Southeast 195 360 11.000  Level Salt Lake Center
Fri 20:15:10 44.1861 -108.2942 132° Southeast 195 360 11.000  Level Salt Lake Center
Fri 20:16:12 44.1486 -108.2367 132° Southeast 197 365 11.000  Level Salt Lake Center
Fri 20:17:13 44.1125 -108.1792 131° Southeast 198 367 11.000  Level Salt Lake Center
Fri 20:18:15 44.0761 -108.1250 133° Southeast 196 364 11.000  Level Salt Lake Center
Fri 20:19:17 44.0392 -108.0683 132° Southeast 196 364 11.000 48 Level Salt Lake Center
Fri 20:20:19 44.0019 -108.0119 133° Southeast 198 367 11.100 49 Climbing Salt Lake Center
Fri 20:21:20 43.9589 -107.9450 132° Southeast 197 365 11.100 -49 Level Salt Lake Center
Fri 20:22:22 43.9269 -107.8856 127° Southeast 194 359 11.000 -48 Descending Salt Lake Center
Fri 20:23:24 43.8961 -107.8244 125° Southeast 193 357 11.000 49 Level Salt Lake Center
Fri 20:24:25 43.8658 -107.7622 124° Southeast 194 359 11.100  Climbing Salt Lake Center
Fri 20:25:27 43.8339 -107.7017 126° Southeast 195 360 11.000 -48 Descending Salt Lake Center
Fri 20:26:29 43.8025 -107.6406 125° Southeast 195 360 11.000  Level Salt Lake Center
Fri 20:27:31 43.7717 -107.5817 126° Southeast 193 357 11.000  Level Salt Lake Center
Fri 20:28:32 43.7328 -107.5083 126° Southeast 195 360 11.000  Level Salt Lake Center
Fri 20:29:34 43.7019 -107.4458 124° Southeast 196 364 11.000  Level Salt Lake Center
Fri 20:30:36 43.6694 -107.3850 126° Southeast 197 365 11.000  Level Salt Lake Center
Fri 20:31:37 43.6381 -107.3236 125° Southeast 196 364 11.000  Level Salt Lake Center
Fri 20:32:40 43.6064 -107.2611 125° Southeast 197 365 11.000  Level Salt Lake Center
Fri 20:33:41 43.5733 -107.1983 126° Southeast 199 369 11.000  Level Salt Lake Center
Fri 20:34:43 43.5356 -107.1231 125° Southeast 199 369 11.000 49 Level Salt Lake Center
Fri 20:35:44 43.5025 -107.0606 126° Southeast 201 372 11.100  Climbing Salt Lake Center
Fri 20:36:46 43.4692 -106.9989 127° Southeast 202 373 11.000 -48 Descending Salt Lake Center
Fri 20:37:48 43.4350 -106.9361 127° Southeast 205 380 11.000  Level Salt Lake Center
Fri 20:38:49 43.3922 -106.8828 138° Southeast 199 369 11.000  Level Salt Lake Center
Fri 20:39:51 43.3458 -106.8453 150° Southeast 201 372 11.000 -242 Level Salt Lake Center
Fri 20:40:53 43.2903 -106.7989 149° Southeast 207 383 10.500 -439 Descending Salt Lake Center
Fri 20:41:54 43.2425 -106.7575 148° Southeast 211 391 10.100 -390 Descending Salt Lake Center
Fri 20:42:56 43.1878 -106.7083 147° Southeast 211 391 9.700 -532 Descending Salt Lake Center
Fri 20:43:58 43.1436 -106.6639 144° Southeast 208 385 9.000 -537 Descending Salt Lake Center
Fri 20:44:59 43.0997 -106.6206 144° Southeast 206 381 8.600 -488 Descending Salt Lake Center
Fri 20:46:01 43.0492 -106.5711 144° Southeast 203 377 8.000 -575 Descending Salt Lake Center
Fri 20:47:25 42.9861 -106.5083 144° Southeast 197 365 7.200 -493 Descending Denver Center
Fri 20:48:27 42.9531 -106.4728 142° Southeast 195 360 6.800 -387 Descending Denver Center

Login

Don't have an account? Register now (free) for customized features, flight alerts, and more!